sensor_id;sensor_type;location;lat;lon;timestamp;pressure;altitude;pressure_sealevel;temperature;humidity
27613;BME280;15036;48.094;-1.690;2023-10-31T00:00:31;99347.69;;;17.48;59.04
27613;BME280;15036;48.094;-1.690;2023-10-31T00:02:56;99348.84;;;17.57;59.05
27613;BME280;15036;48.094;-1.690;2023-10-31T00:05:22;99353.78;;;17.60;58.74
27613;BME280;15036;48.094;-1.690;2023-10-31T00:07:47;99357.63;;;17.64;58.67
27613;BME280;15036;48.094;-1.690;2023-10-31T00:10:13;99360.41;;;17.64;58.73
27613;BME280;15036;48.094;-1.690;2023-10-31T00:12:38;99365.94;;;17.59;59.08
27613;BME280;15036;48.094;-1.690;2023-10-31T00:15:05;99364.25;;;17.68;59.10
27613;BME280;15036;48.094;-1.690;2023-10-31T00:17:30;99360.94;;;17.66;58.99
27613;BME280;15036;48.094;-1.690;2023-10-31T00:19:56;99365.94;;;17.54;59.31
27613;BME280;15036;48.094;-1.690;2023-10-31T00:22:21;99374.44;;;17.47;59.48
27613;BME280;15036;48.094;-1.690;2023-10-31T00:24:46;99374.22;;;17.54;58.98
27613;BME280;15036;48.094;-1.690;2023-10-31T00:27:12;99374.75;;;17.61;59.16
27613;BME280;15036;48.094;-1.690;2023-10-31T00:29:37;99381.66;;;17.58;59.32
27613;BME280;15036;48.094;-1.690;2023-10-31T00:32:03;99377.22;;;17.67;59.04
27613;BME280;15036;48.094;-1.690;2023-10-31T00:34:28;99378.88;;;17.73;58.94
27613;BME280;15036;48.094;-1.690;2023-10-31T00:36:54;99376.41;;;17.67;59.19
27613;BME280;15036;48.094;-1.690;2023-10-31T00:39:19;99380.25;;;17.66;59.25
27613;BME280;15036;48.094;-1.690;2023-10-31T00:41:44;99394.63;;;17.63;58.88
27613;BME280;15036;48.094;-1.690;2023-10-31T00:44:11;99381.91;;;17.62;59.18
27613;BME280;15036;48.094;-1.690;2023-10-31T00:46:37;99388.81;;;17.69;59.19
27613;BME280;15036;48.094;-1.690;2023-10-31T00:49:03;99397.66;;;17.56;59.46
27613;BME280;15036;48.094;-1.690;2023-10-31T00:51:28;99390.19;;;17.72;59.12
27613;BME280;15036;48.094;-1.690;2023-10-31T00:53:53;99388.81;;;17.64;59.46
27613;BME280;15036;48.094;-1.690;2023-10-31T00:56:19;99393.53;;;17.54;59.63
27613;BME280;15036;48.094;-1.690;2023-10-31T00:58:45;99390.75;;;17.69;59.60
27613;BME280;15036;48.094;-1.690;2023-10-31T01:01:10;99404.25;;;17.75;59.01
27613;BME280;15036;48.094;-1.690;2023-10-31T01:03:36;99395.97;;;17.80;59.29
27613;BME280;15036;48.094;-1.690;2023-10-31T01:06:01;99397.91;;;17.75;59.37
27613;BME280;15036;48.094;-1.690;2023-10-31T01:08:26;99402.88;;;17.73;59.52
27613;BME280;15036;48.094;-1.690;2023-10-31T01:10:52;99403.41;;;17.75;59.51
27613;BME280;15036;48.094;-1.690;2023-10-31T01:13:17;99398.16;;;17.83;59.25
27613;BME280;15036;48.094;-1.690;2023-10-31T01:15:44;99405.63;;;17.83;59.30
27613;BME280;15036;48.094;-1.690;2023-10-31T01:18:09;99415.56;;;17.84;59.31
27613;BME280;15036;48.094;-1.690;2023-10-31T01:20:34;99414.97;;;18.02;58.72
27613;BME280;15036;48.094;-1.690;2023-10-31T01:23:00;99417.75;;;18.02;58.67
27613;BME280;15036;48.094;-1.690;2023-10-31T01:25:25;99438.50;;;17.69;59.62
27613;BME280;15036;48.094;-1.690;2023-10-31T01:27:50;99438.75;;;17.83;59.23
27613;BME280;15036;48.094;-1.690;2023-10-31T01:30:16;99439.31;;;17.70;59.79
27613;BME280;15036;48.094;-1.690;2023-10-31T01:32:41;99448.44;;;17.80;59.35
27613;BME280;15036;48.094;-1.690;2023-10-31T01:35:06;99447.31;;;17.76;59.42
27613;BME280;15036;48.094;-1.690;2023-10-31T01:37:32;99449.78;;;17.83;59.46
27613;BME280;15036;48.094;-1.690;2023-10-31T01:39:57;99447.31;;;17.71;59.42
27613;BME280;15036;48.094;-1.690;2023-10-31T01:42:23;99453.13;;;17.55;59.79
27613;BME280;15036;48.094;-1.690;2023-10-31T01:44:48;99462.50;;;17.54;59.83
27613;BME280;15036;48.094;-1.690;2023-10-31T01:47:13;99459.47;;;17.65;59.46
27613;BME280;15036;48.094;-1.690;2023-10-31T01:49:40;99459.75;;;17.54;59.69
27613;BME280;15036;48.094;-1.690;2023-10-31T01:52:06;99471.34;;;17.66;59.39
27613;BME280;15036;48.094;-1.690;2023-10-31T01:54:33;99460.88;;;17.53;59.60
27613;BME280;15036;48.094;-1.690;2023-10-31T01:56:59;99465.56;;;17.62;59.31
27613;BME280;15036;48.094;-1.690;2023-10-31T01:59:25;99475.75;;;17.72;59.36
27613;BME280;15036;48.094;-1.690;2023-10-31T02:01:51;99475.47;;;17.78;59.09
27613;BME280;15036;48.094;-1.690;2023-10-31T02:04:16;99487.91;;;17.66;59.18
27613;BME280;15036;48.094;-1.690;2023-10-31T02:06:42;99489.53;;;17.77;59.09
27613;BME280;15036;48.094;-1.690;2023-10-31T02:09:07;99489.56;;;17.67;59.50
27613;BME280;15036;48.094;-1.690;2023-10-31T02:11:32;99496.44;;;17.69;59.47
27613;BME280;15036;48.094;-1.690;2023-10-31T02:13:58;99496.19;;;17.66;59.66
27613;BME280;15036;48.094;-1.690;2023-10-31T02:16:23;99508.03;;;17.71;59.54
27613;BME280;15036;48.094;-1.690;2023-10-31T02:18:48;99505.81;;;17.63;59.55
27613;BME280;15036;48.094;-1.690;2023-10-31T02:21:14;99514.38;;;17.77;59.31
27613;BME280;15036;48.094;-1.690;2023-10-31T02:23:40;99513.53;;;17.51;59.85
27613;BME280;15036;48.094;-1.690;2023-10-31T02:26:05;99510.53;;;17.73;59.28
27613;BME280;15036;48.094;-1.690;2023-10-31T02:28:31;99516.06;;;17.63;59.80
27613;BME280;15036;48.094;-1.690;2023-10-31T02:30:56;99520.75;;;17.62;59.62
27613;BME280;15036;48.094;-1.690;2023-10-31T02:33:21;99520.47;;;17.59;59.72
27613;BME280;15036;48.094;-1.690;2023-10-31T02:35:47;99528.75;;;17.59;59.70
27613;BME280;15036;48.094;-1.690;2023-10-31T02:38:12;99529.25;;;17.46;59.86
27613;BME280;15036;48.094;-1.690;2023-10-31T02:40:38;99538.69;;;17.60;59.63
27613;BME280;15036;48.094;-1.690;2023-10-31T02:43:03;99538.13;;;17.53;59.73
27613;BME280;15036;48.094;-1.690;2023-10-31T02:45:28;99539.19;;;17.47;60.07
27613;BME280;15036;48.094;-1.690;2023-10-31T02:47:55;99540.59;;;17.54;59.80
27613;BME280;15036;48.094;-1.690;2023-10-31T02:50:20;99534.47;;;17.42;59.80
27613;BME280;15036;48.094;-1.690;2023-10-31T02:52:46;99539.16;;;17.26;60.28
27613;BME280;15036;48.094;-1.690;2023-10-31T02:55:11;99544.97;;;17.40;59.78
27613;BME280;15036;48.094;-1.690;2023-10-31T02:57:36;99541.38;;;17.40;59.69
27613;BME280;15036;48.094;-1.690;2023-10-31T03:00:02;99544.34;;;17.13;60.62
27613;BME280;15036;48.094;-1.690;2023-10-31T03:02:28;99545.72;;;17.15;60.41
27613;BME280;15036;48.094;-1.690;2023-10-31T03:04:55;99546.63;;;17.36;59.51
27613;BME280;15036;48.094;-1.690;2023-10-31T03:07:20;99548.81;;;17.29;59.58
27613;BME280;15036;48.094;-1.690;2023-10-31T03:09:45;99554.31;;;17.39;59.65
27613;BME280;15036;48.094;-1.690;2023-10-31T03:12:10;99556.78;;;17.20;59.71
27613;BME280;15036;48.094;-1.690;2023-10-31T03:14:36;99568.28;;;16.97;60.28
27613;BME280;15036;48.094;-1.690;2023-10-31T03:17:02;99566.91;;;17.00;60.28
27613;BME280;15036;48.094;-1.690;2023-10-31T03:19:27;99567.72;;;16.95;60.50
27613;BME280;15036;48.094;-1.690;2023-10-31T03:21:52;99574.31;;;16.94;60.21
27613;BME280;15036;48.094;-1.690;2023-10-31T03:24:18;99575.50;;;17.08;59.81
27613;BME280;15036;48.094;-1.690;2023-10-31T03:26:43;99588.19;;;17.14;59.44
27613;BME280;15036;48.094;-1.690;2023-10-31T03:29:09;99584.06;;;17.17;59.64
27613;BME280;15036;48.094;-1.690;2023-10-31T03:31:34;99586.72;;;16.92;60.02
27613;BME280;15036;48.094;-1.690;2023-10-31T03:33:59;99596.72;;;17.03;59.82
27613;BME280;15036;48.094;-1.690;2023-10-31T03:36:25;99592.44;;;16.38;60.81
27613;BME280;15036;48.094;-1.690;2023-10-31T03:38:50;99601.06;;;16.94;59.90
27613;BME280;15036;48.094;-1.690;2023-10-31T03:41:15;99593.34;;;16.96;59.52
27613;BME280;15036;48.094;-1.690;2023-10-31T03:43:40;99602.16;;;16.93;59.92
27613;BME280;15036;48.094;-1.690;2023-10-31T03:46:06;99597.78;;;17.02;59.47
27613;BME280;15036;48.094;-1.690;2023-10-31T03:48:31;99608.13;;;16.75;59.83
27613;BME280;15036;48.094;-1.690;2023-10-31T03:50:57;99604.81;;;16.73;60.00
27613;BME280;15036;48.094;-1.690;2023-10-31T03:53:22;99599.91;;;16.85;59.52
27613;BME280;15036;48.094;-1.690;2023-10-31T03:55:47;99615.84;;;16.73;60.10
27613;BME280;15036;48.094;-1.690;2023-10-31T03:58:13;99618.81;;;16.61;60.13
27613;BME280;15036;48.094;-1.690;2023-10-31T04:00:41;99618.25;;;16.59;60.30
27613;BME280;15036;48.094;-1.690;2023-10-31T04:03:08;99632.66;;;16.76;59.57
27613;BME280;15036;48.094;-1.690;2023-10-31T04:05:33;99624.81;;;16.53;60.47
27613;BME280;15036;48.094;-1.690;2023-10-31T04:07:58;99620.50;;;16.72;59.55
27613;BME280;15036;48.094;-1.690;2023-10-31T04:10:24;99625.16;;;16.67;59.72
27613;BME280;15036;48.094;-1.690;2023-10-31T04:12:50;99635.84;;;16.53;59.90
27613;BME280;15036;48.094;-1.690;2023-10-31T04:15:15;99642.28;;;16.69;59.68
27613;BME280;15036;48.094;-1.690;2023-10-31T04:17:41;99647.75;;;16.64;59.60
27613;BME280;15036;48.094;-1.690;2023-10-31T04:20:06;99649.94;;;16.62;59.76
27613;BME280;15036;48.094;-1.690;2023-10-31T04:22:33;99658.94;;;16.52;60.05
27613;BME280;15036;48.094;-1.690;2023-10-31T04:24:58;99664.63;;;16.40;60.41
27613;BME280;15036;48.094;-1.690;2023-10-31T04:27:23;99660.91;;;16.52;59.78
27613;BME280;15036;48.094;-1.690;2023-10-31T04:29:49;99663.28;;;16.48;59.98
27613;BME280;15036;48.094;-1.690;2023-10-31T04:32:14;99674.69;;;16.57;59.84
27613;BME280;15036;48.094;-1.690;2023-10-31T04:34:39;99672.09;;;16.45;60.11
27613;BME280;15036;48.094;-1.690;2023-10-31T04:37:05;99676.59;;;16.51;59.68
27613;BME280;15036;48.094;-1.690;2023-10-31T04:39:30;99687.06;;;16.54;59.56
27613;BME280;15036;48.094;-1.690;2023-10-31T04:41:56;99691.22;;;16.57;59.89
27613;BME280;15036;48.094;-1.690;2023-10-31T04:44:21;99699.53;;;16.30;60.44
27613;BME280;15036;48.094;-1.690;2023-10-31T04:46:47;99693.78;;;16.36;60.38
27613;BME280;15036;48.094;-1.690;2023-10-31T04:49:12;99704.94;;;16.20;60.81
27613;BME280;15036;48.094;-1.690;2023-10-31T04:51:38;99707.50;;;16.58;60.08
27613;BME280;15036;48.094;-1.690;2023-10-31T04:54:04;99704.13;;;16.24;60.76
27613;BME280;15036;48.094;-1.690;2023-10-31T04:56:29;99704.31;;;16.44;60.30
27613;BME280;15036;48.094;-1.690;2023-10-31T04:58:55;99711.88;;;16.54;59.96
27613;BME280;15036;48.094;-1.690;2023-10-31T05:01:20;99711.44;;;16.67;59.53
27613;BME280;15036;48.094;-1.690;2023-10-31T05:03:46;99711.09;;;16.59;59.51
27613;BME280;15036;48.094;-1.690;2023-10-31T05:06:11;99709.53;;;16.41;60.00
27613;BME280;15036;48.094;-1.690;2023-10-31T05:08:36;99720.47;;;16.58;59.80
27613;BME280;15036;48.094;-1.690;2023-10-31T05:11:02;99726.63;;;16.43;60.15
27613;BME280;15036;48.094;-1.690;2023-10-31T05:13:28;99724.34;;;16.62;59.62
27613;BME280;15036;48.094;-1.690;2023-10-31T05:15:53;99724.16;;;16.73;58.98
27613;BME280;15036;48.094;-1.690;2023-10-31T05:18:19;99721.63;;;16.67;59.48
27613;BME280;15036;48.094;-1.690;2023-10-31T05:20:44;99732.84;;;16.60;59.81
27613;BME280;15036;48.094;-1.690;2023-10-31T05:23:09;99727.44;;;16.70;58.99
27613;BME280;15036;48.094;-1.690;2023-10-31T05:25:35;99738.50;;;16.75;59.13
27613;BME280;15036;48.094;-1.690;2023-10-31T05:28:01;99743.19;;;16.48;59.63
27613;BME280;15036;48.094;-1.690;2023-10-31T05:30:27;99734.25;;;16.58;59.85
27613;BME280;15036;48.094;-1.690;2023-10-31T05:32:52;99742.63;;;16.46;59.98
27613;BME280;15036;48.094;-1.690;2023-10-31T05:35:18;99738.94;;;16.62;59.33
27613;BME280;15036;48.094;-1.690;2023-10-31T05:37:45;99748.69;;;16.48;59.78
27613;BME280;15036;48.094;-1.690;2023-10-31T05:40:11;99762.00;;;16.51;59.43
27613;BME280;15036;48.094;-1.690;2023-10-31T05:42:37;99751.25;;;16.50;59.72
27613;BME280;15036;48.094;-1.690;2023-10-31T05:45:02;99748.66;;;16.43;60.02
27613;BME280;15036;48.094;-1.690;2023-10-31T05:47:28;99748.00;;;16.58;59.48
27613;BME280;15036;48.094;-1.690;2023-10-31T05:49:53;99746.38;;;16.35;60.16
27613;BME280;15036;48.094;-1.690;2023-10-31T05:52:19;99754.44;;;16.41;60.00
27613;BME280;15036;48.094;-1.690;2023-10-31T05:54:44;99765.31;;;16.53;59.44
27613;BME280;15036;48.094;-1.690;2023-10-31T05:57:09;99768.53;;;16.45;59.95
27613;BME280;15036;48.094;-1.690;2023-10-31T05:59:35;99770.91;;;16.36;60.01
27613;BME280;15036;48.094;-1.690;2023-10-31T06:02:00;99770.41;;;16.39;59.50
27613;BME280;15036;48.094;-1.690;2023-10-31T06:04:25;99768.50;;;16.40;59.53
27613;BME280;15036;48.094;-1.690;2023-10-31T06:06:51;99776.31;;;16.26;60.30
27613;BME280;15036;48.094;-1.690;2023-10-31T06:09:17;99781.19;;;16.46;59.62
27613;BME280;15036;48.094;-1.690;2023-10-31T06:11:42;99776.69;;;16.35;59.80
27613;BME280;15036;48.094;-1.690;2023-10-31T06:14:08;99785.88;;;16.19;60.29
27613;BME280;15036;48.094;-1.690;2023-10-31T06:16:40;99786.63;;;16.36;60.10
27613;BME280;15036;48.094;-1.690;2023-10-31T06:19:05;99794.25;;;16.29;60.33
27613;BME280;15036;48.094;-1.690;2023-10-31T06:21:30;99790.53;;;16.40;60.19
27613;BME280;15036;48.094;-1.690;2023-10-31T06:23:56;99789.75;;;16.18;60.79
27613;BME280;15036;48.094;-1.690;2023-10-31T06:26:21;99801.53;;;16.13;60.97
27613;BME280;15036;48.094;-1.690;2023-10-31T06:28:46;99795.56;;;16.21;61.24
27613;BME280;15036;48.094;-1.690;2023-10-31T06:31:12;99802.34;;;16.40;60.61
27613;BME280;15036;48.094;-1.690;2023-10-31T06:33:37;99805.09;;;16.40;60.90
27613;BME280;15036;48.094;-1.690;2023-10-31T06:36:03;99816.19;;;15.97;61.94
27613;BME280;15036;48.094;-1.690;2023-10-31T06:38:28;99815.69;;;16.00;61.99
27613;BME280;15036;48.094;-1.690;2023-10-31T06:40:53;99822.25;;;16.21;61.30
27613;BME280;15036;48.094;-1.690;2023-10-31T06:43:19;99826.09;;;16.46;61.00
27613;BME280;15036;48.094;-1.690;2023-10-31T06:45:44;99828.88;;;16.46;61.04
27613;BME280;15036;48.094;-1.690;2023-10-31T06:48:09;99829.06;;;16.62;60.52
27613;BME280;15036;48.094;-1.690;2023-10-31T06:50:35;99833.91;;;16.50;60.53
27613;BME280;15036;48.094;-1.690;2023-10-31T06:53:00;99843.34;;;16.59;60.43
27613;BME280;15036;48.094;-1.690;2023-10-31T06:55:25;99844.22;;;16.64;60.47
27613;BME280;15036;48.094;-1.690;2023-10-31T06:57:51;99842.78;;;16.83;59.43
27613;BME280;15036;48.094;-1.690;2023-10-31T07:00:16;99844.75;;;16.61;60.19
27613;BME280;15036;48.094;-1.690;2023-10-31T07:02:42;99845.75;;;16.82;59.45
27613;BME280;15036;48.094;-1.690;2023-10-31T07:05:07;99852.69;;;16.84;59.38
27613;BME280;15036;48.094;-1.690;2023-10-31T07:07:33;99857.63;;;16.82;59.43
27613;BME280;15036;48.094;-1.690;2023-10-31T07:09:58;99862.25;;;17.03;59.01
27613;BME280;15036;48.094;-1.690;2023-10-31T07:12:24;99862.88;;;16.84;59.59
27613;BME280;15036;48.094;-1.690;2023-10-31T07:14:49;99857.94;;;16.86;59.75
27613;BME280;15036;48.094;-1.690;2023-10-31T07:17:15;99871.47;;;16.87;59.48
27613;BME280;15036;48.094;-1.690;2023-10-31T07:19:40;99879.97;;;16.86;59.58
27613;BME280;15036;48.094;-1.690;2023-10-31T07:22:05;99878.50;;;16.73;59.75
27613;BME280;15036;48.094;-1.690;2023-10-31T07:24:31;99872.16;;;17.04;59.03
27613;BME280;15036;48.094;-1.690;2023-10-31T07:26:57;99886.63;;;16.90;59.91
27613;BME280;15036;48.094;-1.690;2023-10-31T07:29:22;99887.19;;;16.87;59.69
27613;BME280;15036;48.094;-1.690;2023-10-31T07:31:47;99888.41;;;17.01;59.14
27613;BME280;15036;48.094;-1.690;2023-10-31T07:34:13;99890.50;;;16.89;59.74
27613;BME280;15036;48.094;-1.690;2023-10-31T07:36:38;99897.38;;;16.86;59.88
27613;BME280;15036;48.094;-1.690;2023-10-31T07:39:06;99901.91;;;16.97;59.52
27613;BME280;15036;48.094;-1.690;2023-10-31T07:41:31;99905.81;;;17.01;59.73
27613;BME280;15036;48.094;-1.690;2023-10-31T07:43:57;99910.88;;;16.88;59.65
27613;BME280;15036;48.094;-1.690;2023-10-31T07:46:22;99904.03;;;16.90;59.82
27613;BME280;15036;48.094;-1.690;2023-10-31T07:48:48;99913.56;;;17.09;59.55
27613;BME280;15036;48.094;-1.690;2023-10-31T07:51:14;99919.34;;;17.08;59.85
27613;BME280;15036;48.094;-1.690;2023-10-31T07:53:41;99923.53;;;16.84;60.34
27613;BME280;15036;48.094;-1.690;2023-10-31T07:56:14;99938.44;;;17.14;59.94
27613;BME280;15036;48.094;-1.690;2023-10-31T07:58:39;99938.53;;;17.24;59.52
27613;BME280;15036;48.094;-1.690;2023-10-31T08:01:05;99936.56;;;17.20;60.29
27613;BME280;15036;48.094;-1.690;2023-10-31T08:03:30;99932.56;;;17.38;59.57
27613;BME280;15036;48.094;-1.690;2023-10-31T08:05:57;99945.44;;;16.95;61.37
27613;BME280;15036;48.094;-1.690;2023-10-31T08:08:22;99942.38;;;17.23;60.22
27613;BME280;15036;48.094;-1.690;2023-10-31T08:10:47;99947.91;;;17.23;60.50
27613;BME280;15036;48.094;-1.690;2023-10-31T08:13:14;99944.56;;;17.21;60.75
27613;BME280;15036;48.094;-1.690;2023-10-31T08:15:39;99944.63;;;17.26;60.84
27613;BME280;15036;48.094;-1.690;2023-10-31T08:18:05;99947.41;;;17.58;60.44
27613;BME280;15036;48.094;-1.690;2023-10-31T08:20:30;99948.28;;;17.64;60.37
27613;BME280;15036;48.094;-1.690;2023-10-31T08:22:59;99944.56;;;17.85;59.77
27613;BME280;15036;48.094;-1.690;2023-10-31T08:25:25;99957.00;;;17.87;59.92
27613;BME280;15036;48.094;-1.690;2023-10-31T08:27:50;99954.88;;;17.99;60.44
27613;BME280;15036;48.094;-1.690;2023-10-31T08:30:15;99959.31;;;17.64;60.85
27613;BME280;15036;48.094;-1.690;2023-10-31T08:32:41;99962.81;;;17.91;60.05
27613;BME280;15036;48.094;-1.690;2023-10-31T08:35:07;99963.06;;;18.26;59.38
27613;BME280;15036;48.094;-1.690;2023-10-31T08:37:32;99966.94;;;18.30;59.33
27613;BME280;15036;48.094;-1.690;2023-10-31T08:39:59;99966.66;;;18.32;59.11
27613;BME280;15036;48.094;-1.690;2023-10-31T08:42:26;99973.81;;;18.28;59.37
27613;BME280;15036;48.094;-1.690;2023-10-31T08:44:51;99974.25;;;18.56;58.67
27613;BME280;15036;48.094;-1.690;2023-10-31T08:47:16;99979.59;;;18.78;58.43
27613;BME280;15036;48.094;-1.690;2023-10-31T08:49:44;99984.56;;;18.71;58.28
27613;BME280;15036;48.094;-1.690;2023-10-31T08:52:09;99987.56;;;18.64;58.74
27613;BME280;15036;48.094;-1.690;2023-10-31T08:54:34;99983.47;;;18.77;58.96
27613;BME280;15036;48.094;-1.690;2023-10-31T08:57:00;99992.66;;;19.08;58.34
27613;BME280;15036;48.094;-1.690;2023-10-31T08:59:25;99993.25;;;19.15;58.53
27613;BME280;15036;48.094;-1.690;2023-10-31T09:01:50;100000.38;;;18.85;58.97
27613;BME280;15036;48.094;-1.690;2023-10-31T09:04:16;100002.63;;;18.98;58.37
27613;BME280;15036;48.094;-1.690;2023-10-31T09:06:41;100006.13;;;18.74;59.15
27613;BME280;15036;48.094;-1.690;2023-10-31T09:09:06;99996.03;;;19.20;57.86
27613;BME280;15036;48.094;-1.690;2023-10-31T09:11:32;99998.56;;;19.31;58.04
27613;BME280;15036;48.094;-1.690;2023-10-31T09:13:57;100008.13;;;18.83;58.84
27613;BME280;15036;48.094;-1.690;2023-10-31T09:16:22;100016.22;;;19.15;57.96
27613;BME280;15036;48.094;-1.690;2023-10-31T09:18:48;100017.00;;;19.00;58.58
27613;BME280;15036;48.094;-1.690;2023-10-31T09:21:13;100017.41;;;19.44;57.52
27613;BME280;15036;48.094;-1.690;2023-10-31T09:23:39;100017.69;;;19.48;57.44
27613;BME280;15036;48.094;-1.690;2023-10-31T09:26:04;100021.38;;;18.86;59.00
27613;BME280;15036;48.094;-1.690;2023-10-31T09:28:29;100033.97;;;19.29;58.28
27613;BME280;15036;48.094;-1.690;2023-10-31T09:30:56;100022.13;;;19.44;57.82
27613;BME280;15036;48.094;-1.690;2023-10-31T09:33:25;100023.78;;;19.60;57.93
27613;BME280;15036;48.094;-1.690;2023-10-31T09:35:50;100024.91;;;19.74;57.34
27613;BME280;15036;48.094;-1.690;2023-10-31T09:38:15;100018.72;;;19.17;58.52
27613;BME280;15036;48.094;-1.690;2023-10-31T09:40:41;100017.69;;;19.73;57.51
27613;BME280;15036;48.094;-1.690;2023-10-31T09:43:06;100024.38;;;19.82;57.60
27613;BME280;15036;48.094;-1.690;2023-10-31T09:45:32;100029.88;;;19.47;58.06
27613;BME280;15036;48.094;-1.690;2023-10-31T09:47:58;100022.97;;;19.59;57.83
27613;BME280;15036;48.094;-1.690;2023-10-31T09:50:26;100022.38;;;20.03;57.19
27613;BME280;15036;48.094;-1.690;2023-10-31T09:52:52;100037.09;;;19.58;57.71
27613;BME280;15036;48.094;-1.690;2023-10-31T09:55:18;100046.50;;;20.07;57.08
27613;BME280;15036;48.094;-1.690;2023-10-31T09:57:44;100043.19;;;19.75;57.71
27613;BME280;15036;48.094;-1.690;2023-10-31T10:00:10;100048.19;;;19.98;57.13
27613;BME280;15036;48.094;-1.690;2023-10-31T10:02:37;100044.88;;;19.86;57.66
27613;BME280;15036;48.094;-1.690;2023-10-31T10:05:03;100040.13;;;20.17;57.18
27613;BME280;15036;48.094;-1.690;2023-10-31T10:07:29;100049.00;;;20.09;57.54
27613;BME280;15036;48.094;-1.690;2023-10-31T10:09:57;100058.13;;;20.34;56.91
27613;BME280;15036;48.094;-1.690;2023-10-31T10:12:22;100053.41;;;20.45;56.27
27613;BME280;15036;48.094;-1.690;2023-10-31T10:14:47;100051.41;;;20.65;56.00
27613;BME280;15036;48.094;-1.690;2023-10-31T10:17:20;100062.16;;;20.87;55.74
27613;BME280;15036;48.094;-1.690;2023-10-31T10:19:46;100057.88;;;20.31;56.69
27613;BME280;15036;48.094;-1.690;2023-10-31T10:22:11;100060.06;;;20.39;56.67
27613;BME280;15036;48.094;-1.690;2023-10-31T10:24:39;100059.59;;;21.11;55.23
27613;BME280;15036;48.094;-1.690;2023-10-31T10:27:06;100055.53;;;20.78;55.88
27613;BME280;15036;48.094;-1.690;2023-10-31T10:29:33;100061.31;;;20.87;55.71
27613;BME280;15036;48.094;-1.690;2023-10-31T10:31:58;100061.13;;;20.63;55.29
27613;BME280;15036;48.094;-1.690;2023-10-31T10:34:24;100065.19;;;20.91;55.58
27613;BME280;15036;48.094;-1.690;2023-10-31T10:36:49;100052.31;;;20.41;56.02
27613;BME280;15036;48.094;-1.690;2023-10-31T10:39:20;100053.91;;;20.67;55.72
27613;BME280;15036;48.094;-1.690;2023-10-31T10:41:52;100057.75;;;20.76;55.65
27613;BME280;15036;48.094;-1.690;2023-10-31T10:44:25;100044.94;;;20.95;55.68
27613;BME280;15036;48.094;-1.690;2023-10-31T10:46:55;100056.28;;;20.99;55.33
27613;BME280;15036;48.094;-1.690;2023-10-31T10:49:24;100058.63;;;20.71;56.17
27613;BME280;15036;48.094;-1.690;2023-10-31T10:51:58;100054.59;;;20.98;55.48
27613;BME280;15036;48.094;-1.690;2023-10-31T10:54:37;100060.38;;;21.16;55.12
27613;BME280;15036;48.094;-1.690;2023-10-31T10:57:24;100070.69;;;21.11;55.14
27613;BME280;15036;48.094;-1.690;2023-10-31T10:59:55;100066.97;;;21.30;55.16
27613;BME280;15036;48.094;-1.690;2023-10-31T11:02:24;100066.19;;;21.20;54.61
27613;BME280;15036;48.094;-1.690;2023-10-31T11:04:51;100062.38;;;21.11;55.24
27613;BME280;15036;48.094;-1.690;2023-10-31T11:07:17;100071.28;;;20.93;54.73
27613;BME280;15036;48.094;-1.690;2023-10-31T11:09:44;100074.81;;;21.23;54.64
27613;BME280;15036;48.094;-1.690;2023-10-31T11:12:11;100067.72;;;21.51;53.87
27613;BME280;15036;48.094;-1.690;2023-10-31T11:14:38;100075.41;;;21.15;54.44
27613;BME280;15036;48.094;-1.690;2023-10-31T11:17:11;100071.78;;;21.10;55.01
27613;BME280;15036;48.094;-1.690;2023-10-31T11:19:38;100067.09;;;21.10;54.78
27613;BME280;15036;48.094;-1.690;2023-10-31T11:22:06;100072.03;;;21.23;54.23
27613;BME280;15036;48.094;-1.690;2023-10-31T11:24:33;100062.22;;;21.41;53.79
27613;BME280;15036;48.094;-1.690;2023-10-31T11:27:03;100072.97;;;21.52;53.16
27613;BME280;15036;48.094;-1.690;2023-10-31T11:29:30;100061.63;;;21.44;53.44
27613;BME280;15036;48.094;-1.690;2023-10-31T11:31:58;100073.81;;;21.48;53.65
27613;BME280;15036;48.094;-1.690;2023-10-31T11:34:30;100056.59;;;21.51;53.34
27613;BME280;15036;48.094;-1.690;2023-10-31T11:42:46;100050.38;;;21.64;53.12
27613;BME280;15036;48.094;-1.690;2023-10-31T11:45:12;100053.97;;;22.03;52.79
27613;BME280;15036;48.094;-1.690;2023-10-31T11:47:49;100054.53;;;21.67;53.34
27613;BME280;15036;48.094;-1.690;2023-10-31T11:50:16;100055.88;;;21.74;53.60
27613;BME280;15036;48.094;-1.690;2023-10-31T11:52:41;100058.09;;;21.72;52.93
27613;BME280;15036;48.094;-1.690;2023-10-31T11:55:09;100056.78;;;21.65;53.27
27613;BME280;15036;48.094;-1.690;2023-10-31T11:57:38;100051.72;;;21.72;52.87
27613;BME280;15036;48.094;-1.690;2023-10-31T12:00:04;100048.03;;;21.81;52.76
27613;BME280;15036;48.094;-1.690;2023-10-31T12:02:30;100046.81;;;21.97;52.82
27613;BME280;15036;48.094;-1.690;2023-10-31T12:07:43;100037.66;;;22.25;51.71
27613;BME280;15036;48.094;-1.690;2023-10-31T12:10:09;100045.84;;;21.78;52.49
27613;BME280;15036;48.094;-1.690;2023-10-31T12:12:35;100051.09;;;21.85;52.25
27613;BME280;15036;48.094;-1.690;2023-10-31T12:15:09;100052.44;;;21.48;53.00
27613;BME280;15036;48.094;-1.690;2023-10-31T12:17:35;100045.28;;;22.38;50.98
27613;BME280;15036;48.094;-1.690;2023-10-31T12:20:06;100041.25;;;21.97;51.36
27613;BME280;15036;48.094;-1.690;2023-10-31T12:22:32;100038.63;;;22.11;51.21
27613;BME280;15036;48.094;-1.690;2023-10-31T12:25:05;100028.75;;;21.56;51.59
27613;BME280;15036;48.094;-1.690;2023-10-31T12:27:50;100040.91;;;21.65;51.29
27613;BME280;15036;48.094;-1.690;2023-10-31T12:30:17;100042.03;;;22.03;50.75
27613;BME280;15036;48.094;-1.690;2023-10-31T12:32:44;100057.34;;;22.29;50.32
27613;BME280;15036;48.094;-1.690;2023-10-31T12:35:15;100035.34;;;21.70;50.92
27613;BME280;15036;48.094;-1.690;2023-10-31T12:37:46;100038.03;;;22.42;49.61
27613;BME280;15036;48.094;-1.690;2023-10-31T12:40:22;100048.19;;;22.00;50.38
27613;BME280;15036;48.094;-1.690;2023-10-31T12:42:49;100034.88;;;22.25;49.40
27613;BME280;15036;48.094;-1.690;2023-10-31T12:45:16;100042.53;;;21.71;50.56
27613;BME280;15036;48.094;-1.690;2023-10-31T12:47:43;100050.13;;;21.99;50.16
27613;BME280;15036;48.094;-1.690;2023-10-31T12:50:16;100047.31;;;22.33;49.77